Time;durP1;ratioP1;P1;durP2;ratioP2;P2;SDS_P1;SDS_P2;PMS_P1;PMS_P2;Temp;Humidity;BMP_temperature;BMP_pressure;BME280_temperature;BME280_humidity;BME280_pressure;Samples;Min_cycle;Max_cycle;Signal;HPM_P1;HPM_P2
2023/10/05 00:01:53;;;;;;;13.98;3.20;;;13.60;99.90;;;;;;5079491;28;20042;-88
2023/10/05 00:04:19;;;;;;;8.90;2.90;;;13.70;99.90;;;;;;5096395;28;20040;-88
2023/10/05 00:06:45;;;;;;;5.30;1.30;;;13.70;99.90;;;;;;5095596;28;20095;-88
2023/10/05 00:09:13;;;;;;;8.95;1.90;;;13.70;99.90;;;;;;5078837;28;20040;-88
2023/10/05 00:11:39;;;;;;;7.80;2.53;;;13.60;99.90;;;;;;5079197;28;20509;-88
2023/10/05 00:14:10;;;;;;;4.65;1.30;;;13.60;99.90;;;;;;5079408;28;20035;-88
2023/10/05 00:16:36;;;;;;;8.23;1.58;;;13.60;99.90;;;;;;5078995;28;20494;-88
2023/10/05 00:19:10;;;;;;;11.07;3.13;;;13.60;99.90;;;;;;5078764;28;20079;-88
2023/10/05 00:21:37;;;;;;;12.00;2.90;;;13.70;99.90;;;;;;5079055;28;20154;-88
2023/10/05 00:24:06;;;;;;;12.05;2.97;;;13.80;99.90;;;;;;5078999;28;20168;-88
2023/10/05 00:26:36;;;;;;;15.27;3.35;;;13.80;99.90;;;;;;5095970;28;20050;-88
2023/10/05 00:31:49;;;;;;;5.38;1.48;;;13.70;99.90;;;;;;5095313;28;20039;-88
2023/10/05 00:34:22;;;;;;;7.40;2.10;;;13.70;99.90;;;;;;5098358;28;20426;-88
2023/10/05 00:36:51;;;;;;;5.47;1.40;;;13.60;99.90;;;;;;5097284;28;20046;-88
2023/10/05 00:39:19;;;;;;;11.52;2.97;;;13.60;99.90;;;;;;5095458;28;20035;-88
2023/10/05 00:44:34;;;;;;;11.63;3.50;;;13.70;99.90;;;;;;5095534;28;20051;-88
2023/10/05 00:47:01;;;;;;;12.85;3.55;;;13.70;99.90;;;;;;5095371;28;20047;-88
2023/10/05 00:49:41;;;;;;;7.38;2.10;;;13.70;99.90;;;;;;5095048;28;20039;-88
2023/10/05 00:52:17;;;;;;;4.97;1.17;;;13.60;99.90;;;;;;5078376;28;20069;-88
2023/10/05 00:54:49;;;;;;;7.78;2.00;;;13.50;99.90;;;;;;5095474;28;20039;-88
2023/10/05 00:57:15;;;;;;;12.07;3.20;;;13.50;99.90;;;;;;5095172;28;20046;-88
2023/10/05 01:00:09;;;;;;;4.85;1.27;;;13.50;99.90;;;;;;5095055;28;20039;-88
2023/10/05 01:02:36;;;;;;;4.95;1.58;;;13.60;99.90;;;;;;5094448;28;20050;-88
2023/10/05 01:05:15;;;;;;;12.70;3.78;;;13.50;99.90;;;;;;5103483;28;20043;-88
2023/10/05 01:12:41;;;;;;;6.82;1.13;;;13.70;99.90;;;;;;5095087;28;20123;-88
2023/10/05 01:15:09;;;;;;;4.28;1.38;;;13.60;99.90;;;;;;5094959;28;20047;-88
2023/10/05 01:17:35;;;;;;;5.88;1.15;;;13.60;99.90;;;;;;5077848;28;20075;-88
2023/10/05 01:20:13;;;;;;;4.65;1.38;;;13.60;99.90;;;;;;5093575;28;20043;-88
2023/10/05 01:22:39;;;;;;;7.97;1.77;;;13.60;99.90;;;;;;5077724;28;20119;-88
2023/10/05 01:25:08;;;;;;;11.93;3.67;;;13.60;99.90;;;;;;5094473;28;20410;-87
2023/10/05 01:27:38;;;;;;;6.35;1.63;;;13.70;99.90;;;;;;5077592;28;20071;-88
2023/10/05 01:30:04;;;;;;;12.00;3.42;;;13.70;99.90;;;;;;5077571;28;20039;-88
2023/10/05 01:32:30;;;;;;;11.57;3.42;;;13.70;99.90;;;;;;5077765;28;20058;-88
2023/10/05 01:34:56;;;;;;;8.45;1.83;;;13.80;99.90;;;;;;5077651;28;20043;-88
2023/10/05 01:37:23;;;;;;;3.60;1.27;;;13.80;99.90;;;;;;5094812;28;20027;-87
2023/10/05 01:39:52;;;;;;;9.55;2.03;;;13.80;99.90;;;;;;5077507;28;20040;-88
2023/10/05 01:42:21;;;;;;;10.85;3.40;;;13.80;99.90;;;;;;5077475;28;20043;-88
2023/10/05 01:44:49;;;;;;;4.53;1.50;;;13.80;99.90;;;;;;5077885;28;20070;-88
2023/10/05 01:47:16;;;;;;;3.78;1.35;;;13.80;99.90;;;;;;5082284;28;20039;-88
2023/10/05 01:49:43;;;;;;;10.20;2.97;;;13.70;99.90;;;;;;5085165;28;20043;-88
2023/10/05 01:52:09;;;;;;;3.38;1.17;;;13.80;99.90;;;;;;5077636;28;20383;-87
2023/10/05 01:54:36;;;;;;;11.35;3.10;;;13.80;99.90;;;;;;5094395;28;20035;-88
2023/10/05 01:57:04;;;;;;;5.85;1.92;;;13.80;99.90;;;;;;5076790;28;20506;-88
2023/10/05 01:59:33;;;;;;;11.50;3.88;;;13.80;99.90;;;;;;5094010;28;20474;-88
2023/10/05 02:02:00;;;;;;;11.95;3.30;;;13.80;99.90;;;;;;5077278;28;20044;-88
2023/10/05 02:04:26;;;;;;;3.78;1.20;;;13.80;99.90;;;;;;5094395;28;20043;-88
2023/10/05 02:06:53;;;;;;;5.47;1.48;;;13.80;99.90;;;;;;5112205;28;20043;-88
2023/10/05 02:09:21;;;;;;;10.18;1.83;;;13.70;99.90;;;;;;5094160;28;20043;-88
2023/10/05 02:11:47;;;;;;;11.32;3.55;;;13.70;99.90;;;;;;5077348;28;20093;-87
2023/10/05 02:14:16;;;;;;;9.98;3.33;;;13.70;99.90;;;;;;5077346;28;20414;-87
2023/10/05 02:16:49;;;;;;;4.88;1.67;;;13.80;99.90;;;;;;5077250;28;20046;-87
2023/10/05 02:19:16;;;;;;;6.80;1.58;;;13.70;99.90;;;;;;5083289;28;20040;-87
2023/10/05 02:21:43;;;;;;;13.13;3.80;;;13.70;99.90;;;;;;5085393;28;20126;-87
2023/10/05 02:24:17;;;;;;;4.63;1.55;;;13.70;99.90;;;;;;5093994;28;20036;-87
2023/10/05 02:29:27;;;;;;;8.45;2.08;;;13.70;99.90;;;;;;5094233;28;20035;-87
2023/10/05 02:32:05;;;;;;;6.25;1.45;;;13.70;99.90;;;;;;5096948;28;20039;-87
2023/10/05 02:34:42;;;;;;;6.90;1.75;;;13.60;99.90;;;;;;5098276;28;20439;-87
2023/10/05 02:37:11;;;;;;;4.65;1.30;;;13.60;99.90;;;;;;5081048;28;20494;-87
2023/10/05 02:39:41;;;;;;;7.82;1.98;;;13.60;99.90;;;;;;5097581;28;20043;-87
2023/10/05 02:42:15;;;;;;;12.90;4.18;;;13.50;99.90;;;;;;5098188;28;20122;-87
2023/10/05 02:44:42;;;;;;;4.45;1.50;;;13.60;99.90;;;;;;5081145;28;20047;-87
2023/10/05 02:47:10;;;;;;;8.18;1.73;;;13.60;99.90;;;;;;5097546;28;20078;-87
2023/10/05 02:49:40;;;;;;;14.15;4.32;;;13.50;99.90;;;;;;5097830;28;20036;-87
2023/10/05 02:52:13;;;;;;;7.95;1.73;;;13.60;99.90;;;;;;5097742;28;20039;-87
2023/10/05 02:54:42;;;;;;;4.40;1.52;;;13.60;99.90;;;;;;5080662;28;20042;-87
2023/10/05 02:57:08;;;;;;;8.13;2.03;;;13.50;99.90;;;;;;5097308;28;20122;-87
2023/10/05 02:59:34;;;;;;;12.27;3.92;;;13.50;99.90;;;;;;5097317;28;20047;-87
2023/10/05 03:02:06;;;;;;;5.93;1.63;;;13.60;99.90;;;;;;5097612;28;20040;-87
2023/10/05 03:04:44;;;;;;;9.93;1.52;;;13.60;99.90;;;;;;5097697;28;20055;-87
2023/10/05 03:07:14;;;;;;;4.13;1.50;;;13.50;99.90;;;;;;5097413;28;20046;-87
2023/10/05 03:09:41;;;;;;;12.45;4.03;;;13.50;99.90;;;;;;5080174;28;20039;-87
2023/10/05 03:12:07;;;;;;;10.02;1.95;;;13.60;99.90;;;;;;5097276;28;20036;-87
2023/10/05 03:14:34;;;;;;;6.20;2.17;;;13.60;99.90;;;;;;5097378;28;20036;-88
2023/10/05 03:17:04;;;;;;;10.38;3.88;;;13.60;99.90;;;;;;5080069;28;20036;-87
2023/10/05 03:19:36;;;;;;;8.68;1.65;;;13.60;99.90;;;;;;5096880;28;20069;-87
2023/10/05 03:22:07;;;;;;;13.65;3.85;;;13.60;99.90;;;;;;5096899;28;20510;-87
2023/10/05 03:24:34;;;;;;;13.75;4.13;;;13.60;99.90;;;;;;5080028;28;20116;-87
2023/10/05 03:27:03;;;;;;;6.28;1.63;;;13.60;99.90;;;;;;5096706;28;20088;-87
2023/10/05 03:29:29;;;;;;;8.07;1.90;;;13.70;99.90;;;;;;5080350;28;20402;-87
2023/10/05 03:34:39;;;;;;;6.43;1.92;;;13.70;99.90;;;;;;5096813;28;20051;-87
2023/10/05 03:37:12;;;;;;;8.20;2.65;;;13.70;99.90;;;;;;5088642;28;20092;-88
2023/10/05 03:42:24;;;;;;;3.47;1.30;;;13.70;99.90;;;;;;5095867;28;20051;-87
2023/10/05 03:45:03;;;;;;;12.20;4.25;;;13.70;99.90;;;;;;5079998;28;20073;-87
2023/10/05 03:47:37;;;;;;;7.75;1.70;;;13.70;99.90;;;;;;5079570;28;20032;-87
2023/10/05 03:50:04;;;;;;;12.52;3.88;;;13.70;99.90;;;;;;5080181;28;20096;-87
2023/10/05 03:52:29;;;;;;;7.63;1.83;;;13.70;99.90;;;;;;5100884;28;20509;-87
2023/10/05 03:55:04;;;;;;;12.70;4.00;;;13.70;99.90;;;;;;5079902;28;20036;-87
2023/10/05 03:57:33;;;;;;;11.63;3.75;;;13.80;99.90;;;;;;5105102;28;20100;-87
2023/10/05 03:59:59;;;;;;;14.27;4.13;;;13.80;99.90;;;;;;5080189;28;20482;-88
2023/10/05 04:02:28;;;;;;;7.47;1.83;;;13.80;99.90;;;;;;5083657;28;20084;-88
2023/10/05 04:04:54;;;;;;;8.60;1.95;;;13.80;99.90;;;;;;5102729;28;20123;-87
2023/10/05 04:07:21;;;;;;;12.15;3.85;;;13.70;99.90;;;;;;5079141;28;20550;-87
2023/10/05 04:09:47;;;;;;;6.22;1.60;;;13.80;99.90;;;;;;5078775;28;20027;-87
2023/10/05 04:12:13;;;;;;;7.65;2.00;;;13.70;99.90;;;;;;5079273;28;20032;-88
2023/10/05 04:14:38;;;;;;;10.73;2.50;;;13.70;99.90;;;;;;5096364;28;20474;-87
2023/10/05 04:17:11;;;;;;;10.82;4.18;;;13.60;99.90;;;;;;5095948;28;20107;-87
2023/10/05 04:19:37;;;;;;;;;;;13.70;99.90;;;;;;5079214;28;20039;-87
2023/10/05 04:22:02;;;;;;;6.68;1.88;;;13.70;99.90;;;;;;5078999;28;19916;-87
2023/10/05 04:24:28;;;;;;;13.65;3.92;;;13.70;99.90;;;;;;5096011;28;20042;-87
2023/10/05 04:26:53;;;;;;;5.38;1.70;;;13.70;99.90;;;;;;5078869;28;20123;-87
2023/10/05 04:29:23;;;;;;;4.90;1.65;;;13.70;99.90;;;;;;5078759;28;20040;-88
2023/10/05 04:31:49;;;;;;;7.30;1.70;;;13.70;99.90;;;;;;5079079;28;20039;-88
2023/10/05 04:34:18;;;;;;;15.57;4.70;;;13.70;99.90;;;;;;5095822;28;20105;-87
2023/10/05 04:36:54;;;;;;;6.38;1.33;;;13.70;99.90;;;;;;5075928;28;20173;-88
2023/10/05 04:39:28;;;;;;;13.35;4.07;;;13.70;99.90;;;;;;5078171;28;20044;-87
2023/10/05 04:41:55;;;;;;;9.65;2.08;;;13.80;99.90;;;;;;5077912;28;20039;-87
2023/10/05 04:44:20;;;;;;;7.72;1.95;;;13.80;99.90;;;;;;5078121;28;20070;-87
2023/10/05 04:46:49;;;;;;;14.70;4.38;;;13.70;99.90;;;;;;5094575;28;20063;-87
2023/10/05 04:49:16;;;;;;;15.43;4.22;;;13.80;99.90;;;;;;5077760;28;20123;-87
2023/10/05 04:51:43;;;;;;;9.18;1.70;;;13.80;99.90;;;;;;5115515;28;20074;-86
2023/10/05 04:54:10;;;;;;;8.25;1.92;;;13.80;99.90;;;;;;5096458;28;20035;-87
2023/10/05 04:56:43;;;;;;;13.30;4.60;;;13.70;99.90;;;;;;5079390;28;20032;-87
2023/10/05 05:04:52;;;;;;;12.65;4.00;;;13.80;99.90;;;;;;5095603;28;20040;-88
2023/10/05 05:07:21;;;;;;;10.27;2.25;;;13.80;99.90;;;;;;5091498;28;20495;-87
2023/10/05 05:09:47;;;;;;;8.88;1.80;;;13.70;99.90;;;;;;5096918;28;20114;-87
2023/10/05 05:12:17;;;;;;;8.05;2.35;;;13.70;99.90;;;;;;5103375;28;20036;-87
2023/10/05 05:14:47;;;;;;;15.73;4.80;;;13.60;99.90;;;;;;5079371;28;20031;-87
2023/10/05 05:17:22;;;;;;;9.10;1.92;;;13.60;99.90;;;;;;5093732;28;20043;-87
2023/10/05 05:19:48;;;;;;;11.25;2.45;;;13.60;99.90;;;;;;5077359;28;20051;-87
2023/10/05 05:22:14;;;;;;;13.18;4.18;;;13.50;99.90;;;;;;5077215;28;20045;-87
2023/10/05 05:24:44;;;;;;;6.47;1.60;;;13.50;99.90;;;;;;5077540;28;20467;-87
2023/10/05 05:29:51;;;;;;;5.15;2.00;;;13.50;99.90;;;;;;5094241;28;20039;-87
2023/10/05 05:32:19;;;;;;;;;;;13.50;99.90;;;;;;5085171;27;20379;-87
2023/10/05 05:34:46;;;;;;;8.55;2.13;;;13.50;99.90;;;;;;5079074;28;19916;-87
2023/10/05 05:37:28;;;;;;;8.25;2.53;;;13.50;99.90;;;;;;5094581;28;20492;-87
2023/10/05 05:39:55;;;;;;;12.23;4.55;;;13.50;99.90;;;;;;5086815;27;20043;-87
2023/10/05 05:42:22;;;;;;;9.13;2.55;;;13.50;99.90;;;;;;5081868;28;20097;-87
2023/10/05 05:44:48;;;;;;;13.15;4.18;;;13.50;99.90;;;;;;5085381;28;20043;-86
2023/10/05 05:47:14;;;;;;;11.90;4.18;;;13.60;99.90;;;;;;5085185;28;20054;-88
2023/10/05 05:49:46;;;;;;;6.68;1.50;;;13.60;99.90;;;;;;5101943;28;20039;-87
2023/10/05 05:52:12;;;;;;;13.40;3.90;;;13.60;99.90;;;;;;5102412;28;20048;-87
2023/10/05 05:54:39;;;;;;;5.72;1.73;;;13.60;99.90;;;;;;5080762;28;20058;-87
2023/10/05 05:57:11;;;;;;;14.20;4.43;;;13.60;99.90;;;;;;5094932;28;20039;-87
2023/10/05 05:59:41;;;;;;;6.45;1.52;;;13.70;99.90;;;;;;5080510;28;20039;-87
2023/10/05 06:02:10;;;;;;;9.73;1.40;;;13.70;99.90;;;;;;5102794;28;20092;-87
2023/10/05 06:04:40;;;;;;;16.95;4.15;;;13.70;99.90;;;;;;5085399;28;20123;-87
2023/10/05 06:07:16;;;;;;;12.48;4.53;;;13.70;99.90;;;;;;5081076;28;20043;-88
2023/10/05 06:09:45;;;;;;;13.95;4.32;;;13.80;99.90;;;;;;5097804;28;20039;-88
2023/10/05 06:12:11;;;;;;;9.45;2.35;;;13.80;99.90;;;;;;5081199;28;20036;-87
2023/10/05 06:14:41;;;;;;;8.60;2.38;;;13.80;99.90;;;;;;5097980;28;20036;-88
2023/10/05 06:17:07;;;;;;;5.72;1.63;;;13.80;99.90;;;;;;5097627;28;20047;-87
2023/10/05 06:19:33;;;;;;;7.88;1.98;;;13.80;99.90;;;;;;5100347;28;20040;-88
2023/10/05 06:21:59;;;;;;;6.22;1.50;;;13.80;99.90;;;;;;5090424;28;20039;-88
2023/10/05 06:24:24;;;;;;;15.00;4.20;;;13.80;99.90;;;;;;5094624;28;20506;-88
2023/10/05 06:26:50;;;;;;;8.38;2.20;;;13.90;99.90;;;;;;5097764;28;20040;-87
2023/10/05 06:29:16;;;;;;;8.48;2.47;;;13.90;99.90;;;;;;5097818;28;20115;-87
2023/10/05 06:31:43;;;;;;;13.02;4.05;;;13.90;99.90;;;;;;5088999;28;20042;-87
2023/10/05 06:34:09;;;;;;;14.75;4.15;;;13.90;99.90;;;;;;5081282;28;20067;-88
2023/10/05 06:36:38;;;;;;;10.68;1.35;;;14.00;99.90;;;;;;5083496;27;20086;-88
2023/10/05 06:39:09;;;;;;;10.75;1.80;;;14.00;99.90;;;;;;5097854;28;20047;-88
2023/10/05 06:41:36;;;;;;;13.02;4.55;;;13.90;99.90;;;;;;5081990;28;20449;-88
2023/10/05 06:44:03;;;;;;;8.20;1.77;;;14.00;99.90;;;;;;5097658;28;20066;-87
2023/10/05 06:46:29;;;;;;;6.47;1.63;;;14.00;99.90;;;;;;5101393;28;20046;-88
2023/10/05 06:48:55;;;;;;;9.32;2.05;;;14.00;99.90;;;;;;5080687;28;20122;-88
2023/10/05 06:51:26;;;;;;;14.02;4.45;;;13.90;99.90;;;;;;5105836;28;20481;-88
2023/10/05 06:53:57;;;;;;;14.43;4.47;;;14.00;99.90;;;;;;5079929;28;20039;-88
2023/10/05 06:56:24;;;;;;;16.88;4.93;;;14.10;99.90;;;;;;5083019;28;20092;-88
2023/10/05 06:58:49;;;;;;;12.77;2.22;;;14.10;99.90;;;;;;5082975;27;20092;-88
2023/10/05 07:01:19;;;;;;;8.77;2.83;;;14.10;99.90;;;;;;5090512;27;20039;-87
2023/10/05 07:03:45;;;;;;;10.25;1.95;;;14.10;99.90;;;;;;5089839;27;20046;-87
2023/10/05 07:06:10;;;;;;;12.70;2.55;;;14.10;99.90;;;;;;5091255;27;20122;-88
2023/10/05 07:08:36;;;;;;;13.52;4.45;;;14.10;99.90;;;;;;5106588;27;20039;-87
2023/10/05 07:11:01;;;;;;;7.95;1.73;;;14.20;99.90;;;;;;5090097;27;20031;-87
2023/10/05 07:13:28;;;;;;;14.38;4.90;;;14.20;99.90;;;;;;5105417;27;20032;-87
2023/10/05 07:15:55;;;;;;;7.50;1.80;;;14.20;99.90;;;;;;5106968;27;20038;-88
2023/10/05 07:18:21;;;;;;;8.88;2.08;;;14.20;99.90;;;;;;5102027;28;20413;-88
2023/10/05 07:20:48;;;;;;;10.00;2.33;;;14.20;99.90;;;;;;5082447;27;20035;-88
2023/10/05 07:23:14;;;;;;;15.05;4.75;;;14.20;99.90;;;;;;5086054;27;20057;-88
2023/10/05 07:25:41;;;;;;;15.27;4.72;;;14.30;99.90;;;;;;5103836;27;20040;-88
2023/10/05 07:28:14;;;;;;;8.45;1.90;;;14.40;99.90;;;;;;5083088;28;20028;-88
2023/10/05 07:30:43;;;;;;;14.75;4.45;;;14.40;99.90;;;;;;5098580;28;20119;-88
2023/10/05 07:33:09;;;;;;;7.00;1.77;;;14.40;99.90;;;;;;5096723;28;20394;-88
2023/10/05 07:35:36;;;;;;;12.07;4.10;;;14.40;99.90;;;;;;5105000;28;20551;-88
2023/10/05 07:38:02;;;;;;;9.38;1.98;;;14.40;99.90;;;;;;5096631;28;20097;-88
2023/10/05 07:40:27;;;;;;;7.93;2.33;;;14.40;99.90;;;;;;5100359;28;20047;-88
2023/10/05 07:42:53;;;;;;;15.48;4.57;;;14.40;99.90;;;;;;5088213;28;20086;-88
2023/10/05 07:45:19;;;;;;;12.60;4.40;;;14.50;99.90;;;;;;5084313;28;20040;-87
2023/10/05 07:47:46;;;;;;;14.32;4.70;;;14.50;99.90;;;;;;5085235;28;20040;-87
2023/10/05 07:50:15;;;;;;;9.48;2.10;;;14.50;99.90;;;;;;5087892;28;20039;-87
2023/10/05 07:52:48;;;;;;;13.82;4.70;;;14.50;99.90;;;;;;5093482;28;20027;-87
2023/10/05 07:55:13;;;;;;;;;;;14.60;99.90;;;;;;5079749;28;20049;-87
2023/10/05 07:57:39;;;;;;;5.68;1.42;;;14.60;99.90;;;;;;5095492;28;19920;-88
2023/10/05 08:00:06;;;;;;;8.98;2.88;;;14.60;99.90;;;;;;5079201;28;20035;-88
2023/10/05 08:02:32;;;;;;;6.15;1.52;;;14.60;99.90;;;;;;5079434;28;20156;-88
2023/10/05 08:04:58;;;;;;;9.43;1.77;;;14.60;99.90;;;;;;5078440;28;20043;-88
2023/10/05 08:07:23;;;;;;;16.67;4.68;;;14.70;99.90;;;;;;5079003;28;20039;-88
2023/10/05 08:09:49;;;;;;;14.63;4.63;;;14.80;99.90;;;;;;5078880;28;20038;-88
2023/10/05 08:12:15;;;;;;;4.25;1.30;;;14.80;99.90;;;;;;5095571;28;20081;-88
2023/10/05 08:14:40;;;;;;;6.82;2.38;;;14.90;99.90;;;;;;5095669;28;20039;-88
2023/10/05 08:17:06;;;;;;;12.55;4.43;;;14.90;99.90;;;;;;5086724;28;20522;-88
2023/10/05 08:19:32;;;;;;;12.43;3.80;;;14.90;99.90;;;;;;5078680;28;20047;-88
2023/10/05 08:21:58;;;;;;;14.88;4.47;;;15.00;99.90;;;;;;5086549;28;20044;-88
2023/10/05 08:24:24;;;;;;;11.93;2.25;;;15.10;99.90;;;;;;5082012;28;20082;-88
2023/10/05 08:26:56;;;;;;;8.98;1.80;;;15.10;99.90;;;;;;5079251;28;20442;-88
2023/10/05 08:29:22;;;;;;;8.07;2.65;;;15.00;99.90;;;;;;5095160;28;20124;-89
2023/10/05 08:31:52;;;;;;;14.02;4.53;;;15.00;99.90;;;;;;5086988;28;20046;-88
2023/10/05 08:34:20;;;;;;;4.70;1.33;;;15.20;99.90;;;;;;5104204;28;20438;-88
2023/10/05 08:36:49;;;;;;;13.48;4.18;;;15.20;99.90;;;;;;5082474;28;21181;-88
2023/10/05 08:39:23;;;;;;;13.18;4.57;;;15.30;99.90;;;;;;5108451;28;20051;-88
2023/10/05 08:41:48;;;;;;;7.90;1.77;;;15.40;99.90;;;;;;5079300;28;20039;-88
2023/10/05 08:44:27;;;;;;;8.57;1.35;;;15.40;99.90;;;;;;5077384;28;20126;-89
2023/10/05 08:46:55;;;;;;;11.93;4.40;;;15.40;99.90;;;;;;5086793;27;20051;-89
2023/10/05 08:49:23;;;;;;;9.07;2.05;;;15.50;99.90;;;;;;5100997;27;20043;-89
2023/10/05 08:51:49;;;;;;;14.30;5.28;;;15.50;99.90;;;;;;5084357;28;20043;-89
2023/10/05 08:54:15;;;;;;;9.40;1.98;;;15.50;99.90;;;;;;5087046;27;20035;-88
2023/10/05 08:56:45;;;;;;;16.05;4.57;;;15.60;99.90;;;;;;5084465;28;20040;-89
2023/10/05 08:59:13;;;;;;;16.38;4.53;;;15.60;99.90;;;;;;5103420;27;20035;-89
2023/10/05 09:01:42;;;;;;;17.83;5.50;;;15.70;99.90;;;;;;5084189;27;20031;-89
2023/10/05 09:06:55;;;;;;;15.32;4.32;;;15.70;99.90;;;;;;5101335;27;20046;-88
2023/10/05 09:09:39;;;;;;;6.53;1.58;;;15.80;99.90;;;;;;5083838;27;20080;-89
2023/10/05 09:12:46;;;;;;;8.95;2.20;;;15.80;99.90;;;;;;5100483;27;20045;-89
2023/10/05 09:15:18;;;;;;;14.32;4.03;;;15.80;99.90;;;;;;5086010;27;20654;-88
2023/10/05 09:18:17;;;;;;;14.82;4.15;;;15.80;99.90;;;;;;5102373;27;20068;-89
2023/10/05 09:20:46;;;;;;;15.60;4.53;;;15.90;99.90;;;;;;5081311;28;20044;-88
2023/10/05 09:23:13;;;;;;;14.90;4.57;;;16.00;99.90;;;;;;5088731;27;20131;-88
2023/10/05 09:25:44;;;;;;;14.60;4.60;;;16.00;99.90;;;;;;5084046;27;20046;-88
2023/10/05 09:28:19;;;;;;;5.60;1.58;;;16.10;99.90;;;;;;5095576;27;20033;-88
2023/10/05 09:31:07;;;;;;;16.67;3.97;;;16.10;99.90;;;;;;5077856;28;20504;-88
2023/10/05 09:33:35;;;;;;;10.07;2.67;;;16.10;99.90;;;;;;5078373;28;20513;-88
2023/10/05 09:36:19;;;;;;;17.75;4.20;;;16.10;99.90;;;;;;5086268;28;20036;-88
2023/10/05 09:38:46;;;;;;;13.95;4.70;;;16.10;99.90;;;;;;5078950;28;20039;-88
2023/10/05 09:41:17;;;;;;;9.95;2.10;;;16.10;99.90;;;;;;5093256;28;20035;-88
2023/10/05 09:43:44;;;;;;;16.73;3.28;;;16.20;99.90;;;;;;5077561;28;20035;-88
2023/10/05 09:46:10;;;;;;;14.88;3.17;;;16.20;99.90;;;;;;5078487;28;20313;-89
2023/10/05 09:48:40;;;;;;;8.70;2.85;;;16.20;99.90;;;;;;5095216;28;20035;-89
2023/10/05 09:51:10;;;;;;;12.80;4.53;;;16.20;99.90;;;;;;5095018;28;20031;-89
2023/10/05 09:53:38;;;;;;;10.52;2.42;;;16.30;99.90;;;;;;5092637;28;20027;-89
2023/10/05 09:56:04;;;;;;;17.98;4.82;;;16.30;99.90;;;;;;5093200;28;20375;-89
2023/10/05 09:58:30;;;;;;;12.40;4.78;;;16.40;99.90;;;;;;5077211;28;20501;-89
2023/10/05 10:00:56;;;;;;;11.13;2.50;;;16.50;99.90;;;;;;5076992;28;20072;-89
2023/10/05 10:03:23;;;;;;;19.98;4.13;;;16.50;99.90;;;;;;5077086;28;20130;-89
2023/10/05 10:06:07;;;;;;;15.38;4.32;;;16.60;99.90;;;;;;5102271;28;20051;-88
2023/10/05 10:08:34;;;;;;;16.30;4.38;;;16.70;99.90;;;;;;5102038;28;20434;-89
2023/10/05 10:11:06;;;;;;;14.70;4.35;;;16.80;99.90;;;;;;5094038;28;20550;-88
2023/10/05 10:13:37;;;;;;;11.40;2.83;;;16.80;99.90;;;;;;5081050;28;20625;-89
2023/10/05 10:16:16;;;;;;;8.70;2.53;;;16.80;99.90;;;;;;5076942;28;20043;-89
2023/10/05 10:18:44;;;;;;;14.80;4.65;;;16.80;99.90;;;;;;5076128;28;20047;-89
2023/10/05 10:21:32;;;;;;;11.77;3.65;;;16.90;99.90;;;;;;5094026;28;20387;-88
2023/10/05 10:24:06;;;;;;;12.48;2.88;;;16.90;99.90;;;;;;5076895;28;20047;-88
2023/10/05 10:26:40;;;;;;;10.88;2.35;;;16.80;99.90;;;;;;5093504;28;20040;-89
2023/10/05 10:29:12;;;;;;;14.60;4.45;;;16.80;99.90;;;;;;5076517;28;20387;-89
2023/10/05 10:31:48;;;;;;;;;;;16.90;99.90;;;;;;5097233;28;20058;-89
2023/10/05 10:34:28;;;;;;;8.18;2.25;;;16.80;99.90;;;;;;5091320;28;20067;-89
2023/10/05 10:36:57;;;;;;;17.48;4.30;;;16.80;99.90;;;;;;5094317;28;20043;-89
2023/10/05 10:39:29;;;;;;;13.95;4.28;;;16.80;99.90;;;;;;5076353;28;20494;-89
2023/10/05 10:42:09;;;;;;;12.80;2.88;;;16.90;99.90;;;;;;5093901;28;20092;-88
2023/10/05 10:47:15;;;;;;;16.35;2.95;;;17.00;99.90;;;;;;5093455;28;20495;-89
2023/10/05 10:50:10;;;;;;;15.25;4.43;;;17.10;99.90;;;;;;5092324;28;20114;-90
2023/10/05 10:52:36;;;;;;;13.73;3.92;;;17.30;99.90;;;;;;5074316;28;20039;-90
2023/10/05 10:55:03;;;;;;;11.65;2.58;;;17.50;99.90;;;;;;5095068;28;20384;-89
2023/10/05 10:57:29;;;;;;;13.27;4.25;;;17.50;99.90;;;;;;5097695;28;20039;-88
2023/10/05 11:00:38;;;;;;;12.50;3.63;;;17.50;99.90;;;;;;5099937;28;20032;-89
2023/10/05 11:02:40;;;;;;;14.63;4.40;;;17.50;99.90;;;;;;5094620;28;20043;-89
2023/10/05 11:05:14;;;;;;;10.75;2.55;;;17.60;99.90;;;;;;5083355;28;20046;-88
2023/10/05 11:07:41;;;;;;;15.02;4.45;;;17.50;99.90;;;;;;5079170;28;20054;-89
2023/10/05 11:10:18;;;;;;;14.90;4.07;;;17.60;99.90;;;;;;5096862;28;20038;-88
2023/10/05 11:12:57;;;;;;;14.25;3.78;;;17.60;99.90;;;;;;5088283;28;20517;-88
2023/10/05 11:15:30;;;;;;;14.43;4.20;;;17.60;99.90;;;;;;5088902;27;20506;-87
2023/10/05 11:18:00;;;;;;;15.38;4.30;;;17.80;99.90;;;;;;5081367;28;20411;-89
2023/10/05 11:20:26;;;;;;;9.55;2.20;;;18.00;99.90;;;;;;5091339;28;20494;-90
2023/10/05 11:23:03;;;;;;;13.40;4.55;;;18.20;99.90;;;;;;5079743;28;20032;-90
2023/10/05 11:25:32;;;;;;;15.65;4.28;;;18.40;99.90;;;;;;5077634;28;20032;-90
2023/10/05 11:27:59;;;;;;;13.60;3.67;;;18.40;99.90;;;;;;5079017;28;20537;-90
2023/10/05 11:30:41;;;;;;;15.70;4.10;;;18.40;99.90;;;;;;5079206;28;20080;-90
2023/10/05 11:33:15;;;;;;;15.25;4.00;;;18.40;99.90;;;;;;5089898;28;20027;-90
2023/10/05 11:35:51;;;;;;;11.32;2.70;;;18.60;99.90;;;;;;5085980;28;20032;-90
2023/10/05 11:38:19;;;;;;;13.85;3.83;;;18.70;99.90;;;;;;5086562;28;20050;-90
2023/10/05 11:40:55;;;;;;;13.43;3.70;;;18.60;99.90;;;;;;5089091;28;20509;-90
2023/10/05 11:43:22;;;;;;;14.18;4.20;;;18.50;99.90;;;;;;5097328;28;20046;-90
2023/10/05 11:45:54;;;;;;;14.35;3.97;;;18.30;99.90;;;;;;5079921;28;20437;-91
2023/10/05 11:48:20;;;;;;;13.57;4.35;;;18.30;99.90;;;;;;5101730;28;20562;-90
2023/10/05 11:50:51;;;;;;;9.88;2.83;;;18.20;99.90;;;;;;5086014;28;20165;-90
2023/10/05 11:53:20;;;;;;;15.20;4.13;;;18.20;99.90;;;;;;5079226;28;20034;-91
2023/10/05 11:55:49;;;;;;;15.43;4.70;;;18.40;99.90;;;;;;5087647;28;20039;-91
2023/10/05 11:58:18;;;;;;;14.00;4.32;;;18.60;99.90;;;;;;5081283;28;20045;-91
2023/10/05 12:00:44;;;;;;;14.20;4.10;;;18.70;99.90;;;;;;5081397;28;20035;-91
2023/10/05 12:03:12;;;;;;;14.13;3.70;;;18.80;99.90;;;;;;5087007;28;20506;-91
2023/10/05 12:05:38;;;;;;;15.10;4.20;;;18.80;99.90;;;;;;5084617;28;20516;-90
2023/10/05 12:08:05;;;;;;;13.60;3.58;;;18.80;99.90;;;;;;5104681;28;20094;-90
2023/10/05 12:10:32;;;;;;;14.25;4.03;;;18.90;99.90;;;;;;5100473;28;20079;-90
2023/10/05 12:13:01;;;;;;;8.70;2.08;;;18.80;99.90;;;;;;5079116;28;20040;-90
2023/10/05 12:15:28;;;;;;;13.30;3.58;;;18.60;99.90;;;;;;5083798;28;20571;-90
2023/10/05 12:17:54;;;;;;;13.98;4.05;;;18.70;99.90;;;;;;5103374;28;20043;-90
2023/10/05 12:20:20;;;;;;;15.32;3.03;;;18.80;99.90;;;;;;5100919;28;20407;-91
2023/10/05 12:22:49;;;;;;;12.40;3.90;;;18.70;99.90;;;;;;5085452;28;20081;-91
2023/10/05 12:25:15;;;;;;;13.93;3.60;;;18.80;99.90;;;;;;5080486;28;20040;-91
2023/10/05 12:27:41;;;;;;;15.05;4.10;;;18.90;99.90;;;;;;5103117;28;20039;-91
2023/10/05 12:30:15;;;;;;;12.25;3.45;;;18.90;99.90;;;;;;5086587;28;20035;-91
2023/10/05 12:32:41;;;;;;;12.18;3.50;;;19.00;99.90;;;;;;5087119;28;20499;-90
2023/10/05 12:35:13;;;;;;;13.80;3.53;;;19.10;99.90;;;;;;5103436;28;20552;-91
2023/10/05 12:37:40;;;;;;;13.47;4.13;;;19.20;99.90;;;;;;5094943;28;20051;-90
2023/10/05 12:40:17;;;;;;;12.35;3.92;;;19.30;99.90;;;;;;5095213;28;20051;-90
2023/10/05 12:42:51;;;;;;;12.38;3.70;;;19.30;99.90;;;;;;5083394;28;20604;-89
2023/10/05 12:45:20;;;;;;;12.35;3.67;;;19.30;99.90;;;;;;5086951;28;20068;-90
2023/10/05 12:47:47;;;;;;;14.40;3.70;;;19.10;99.90;;;;;;5103523;28;20451;-90
2023/10/05 12:50:13;;;;;;;12.13;3.20;;;19.10;99.90;;;;;;5078502;28;20047;-89
2023/10/05 12:52:40;;;;;;;12.45;3.45;;;19.10;99.90;;;;;;5086601;28;20376;-89
2023/10/05 12:55:08;;;;;;;13.80;4.40;;;18.90;99.90;;;;;;5086812;28;20093;-90
2023/10/05 12:57:34;;;;;;;14.00;3.95;;;18.90;99.90;;;;;;5082042;28;20067;-90
2023/10/05 12:59:59;;;;;;;13.35;3.83;;;18.90;99.90;;;;;;5102882;28;20387;-89
2023/10/05 13:02:25;;;;;;;14.27;4.03;;;18.90;99.90;;;;;;5081570;28;20035;-89
2023/10/05 13:04:51;;;;;;;11.23;3.63;;;19.30;99.90;;;;;;5079267;28;20043;-90
2023/10/05 13:07:19;;;;;;;10.30;3.72;;;19.40;99.90;;;;;;5085939;28;20387;-90
2023/10/05 13:09:47;;;;;;;13.35;3.75;;;19.30;99.90;;;;;;5077538;28;20077;-90
2023/10/05 13:12:16;;;;;;;13.32;3.50;;;19.50;99.90;;;;;;5096450;28;20040;-90
2023/10/05 13:14:41;;;;;;;13.35;3.97;;;19.80;99.90;;;;;;5097303;28;20040;-89
2023/10/05 13:17:11;;;;;;;14.27;3.80;;;20.40;99.90;;;;;;5103152;28;20529;-90
2023/10/05 13:19:38;;;;;;;11.18;3.65;;;20.80;99.90;;;;;;5077341;28;20043;-89
2023/10/05 13:22:06;;;;;;;13.50;3.42;;;21.40;99.90;;;;;;5077983;28;20031;-89
2023/10/05 13:24:32;;;;;;;11.45;3.22;;;22.20;99.90;;;;;;5079518;28;20051;-90
2023/10/05 13:26:59;;;;;;;12.15;3.80;;;22.80;99.90;;;;;;5103760;28;20048;-90